sensor_id;sensor_type;location;lat;lon;timestamp;P1;durP1;ratioP1;P2;durP2;ratioP2
13040;SDS011;6587;42.728;23.288;2023-02-16T00:01:13;174.70;;;74.37;;
13040;SDS011;6587;42.728;23.288;2023-02-16T00:03:46;168.80;;;73.90;;
13040;SDS011;6587;42.728;23.288;2023-02-16T00:06:13;148.37;;;64.53;;
13040;SDS011;6587;42.728;23.288;2023-02-16T00:08:42;161.10;;;71.30;;
13040;SDS011;6587;42.728;23.288;2023-02-16T00:11:16;177.53;;;76.73;;
13040;SDS011;6587;42.728;23.288;2023-02-16T00:14:03;148.67;;;65.77;;
13040;SDS011;6587;42.728;23.288;2023-02-16T00:16:33;144.23;;;62.10;;
13040;SDS011;6587;42.728;23.288;2023-02-16T00:19:01;152.63;;;64.37;;
13040;SDS011;6587;42.728;23.288;2023-02-16T00:21:31;147.57;;;60.63;;
13040;SDS011;6587;42.728;23.288;2023-02-16T00:23:58;134.47;;;58.43;;
13040;SDS011;6587;42.728;23.288;2023-02-16T00:26:26;133.63;;;61.33;;
13040;SDS011;6587;42.728;23.288;2023-02-16T00:28:57;124.10;;;52.83;;
13040;SDS011;6587;42.728;23.288;2023-02-16T00:31:25;133.13;;;54.93;;
13040;SDS011;6587;42.728;23.288;2023-02-16T00:33:57;122.73;;;52.07;;
13040;SDS011;6587;42.728;23.288;2023-02-16T00:36:24;119.33;;;52.30;;
13040;SDS011;6587;42.728;23.288;2023-02-16T00:38:51;118.10;;;52.50;;
13040;SDS011;6587;42.728;23.288;2023-02-16T00:41:20;129.70;;;54.67;;
13040;SDS011;6587;42.728;23.288;2023-02-16T00:44:08;119.97;;;52.37;;
13040;SDS011;6587;42.728;23.288;2023-02-16T00:46:40;126.13;;;53.70;;
13040;SDS011;6587;42.728;23.288;2023-02-16T00:49:08;126.80;;;53.47;;
13040;SDS011;6587;42.728;23.288;2023-02-16T00:51:39;115.77;;;51.97;;
13040;SDS011;6587;42.728;23.288;2023-02-16T00:54:06;133.07;;;52.77;;
13040;SDS011;6587;42.728;23.288;2023-02-16T00:56:34;119.83;;;48.70;;
13040;SDS011;6587;42.728;23.288;2023-02-16T00:59:02;201.63;;;80.13;;
13040;SDS011;6587;42.728;23.288;2023-02-16T01:01:33;156.07;;;61.30;;
13040;SDS011;6587;42.728;23.288;2023-02-16T01:04:02;130.23;;;54.87;;
13040;SDS011;6587;42.728;23.288;2023-02-16T01:06:31;120.20;;;53.13;;
13040;SDS011;6587;42.728;23.288;2023-02-16T01:09:16;119.93;;;52.87;;
13040;SDS011;6587;42.728;23.288;2023-02-16T01:12:02;124.13;;;51.90;;
13040;SDS011;6587;42.728;23.288;2023-02-16T01:14:31;119.83;;;48.33;;
13040;SDS011;6587;42.728;23.288;2023-02-16T01:17:00;81.97;;;38.67;;
13040;SDS011;6587;42.728;23.288;2023-02-16T01:19:27;134.97;;;58.77;;
13040;SDS011;6587;42.728;23.288;2023-02-16T01:21:54;143.97;;;59.60;;
13040;SDS011;6587;42.728;23.288;2023-02-16T01:24:21;113.97;;;49.13;;
13040;SDS011;6587;42.728;23.288;2023-02-16T01:26:48;124.63;;;55.77;;
13040;SDS011;6587;42.728;23.288;2023-02-16T01:29:17;131.33;;;54.17;;
13040;SDS011;6587;42.728;23.288;2023-02-16T01:31:48;100.80;;;46.57;;
13040;SDS011;6587;42.728;23.288;2023-02-16T01:34:16;106.83;;;46.33;;
13040;SDS011;6587;42.728;23.288;2023-02-16T01:36:46;113.97;;;47.57;;
13040;SDS011;6587;42.728;23.288;2023-02-16T01:39:14;103.80;;;45.73;;
13040;SDS011;6587;42.728;23.288;2023-02-16T01:41:49;112.43;;;49.80;;
13040;SDS011;6587;42.728;23.288;2023-02-16T01:44:26;109.90;;;47.37;;
13040;SDS011;6587;42.728;23.288;2023-02-16T01:47:00;120.37;;;49.83;;
13040;SDS011;6587;42.728;23.288;2023-02-16T01:49:34;112.90;;;47.40;;
13040;SDS011;6587;42.728;23.288;2023-02-16T01:52:02;104.10;;;44.57;;
13040;SDS011;6587;42.728;23.288;2023-02-16T01:54:37;125.73;;;49.23;;
13040;SDS011;6587;42.728;23.288;2023-02-16T01:57:11;120.30;;;48.67;;
13040;SDS011;6587;42.728;23.288;2023-02-16T02:00:02;107.70;;;44.63;;
13040;SDS011;6587;42.728;23.288;2023-02-16T02:02:40;109.10;;;46.40;;
13040;SDS011;6587;42.728;23.288;2023-02-16T02:05:16;109.10;;;45.30;;
13040;SDS011;6587;42.728;23.288;2023-02-16T02:08:09;107.80;;;48.57;;
13040;SDS011;6587;42.728;23.288;2023-02-16T02:10:44;107.50;;;47.33;;
13040;SDS011;6587;42.728;23.288;2023-02-16T02:13:20;109.93;;;46.50;;
13040;SDS011;6587;42.728;23.288;2023-02-16T02:15:53;102.77;;;45.43;;
13040;SDS011;6587;42.728;23.288;2023-02-16T02:18:23;115.23;;;49.10;;
13040;SDS011;6587;42.728;23.288;2023-02-16T02:21:00;115.80;;;49.97;;
13040;SDS011;6587;42.728;23.288;2023-02-16T02:24:07;128.37;;;54.30;;
13040;SDS011;6587;42.728;23.288;2023-02-16T02:27:12;133.73;;;55.53;;
13040;SDS011;6587;42.728;23.288;2023-02-16T02:32:49;135.93;;;56.83;;
13040;SDS011;6587;42.728;23.288;2023-02-16T02:35:33;134.50;;;57.93;;
13040;SDS011;6587;42.728;23.288;2023-02-16T02:38:14;137.33;;;56.83;;
13040;SDS011;6587;42.728;23.288;2023-02-16T02:40:51;136.57;;;56.40;;
13040;SDS011;6587;42.728;23.288;2023-02-16T02:43:25;134.23;;;53.87;;
13040;SDS011;6587;42.728;23.288;2023-02-16T02:45:57;151.03;;;57.97;;
13040;SDS011;6587;42.728;23.288;2023-02-16T02:48:29;134.43;;;56.33;;
13040;SDS011;6587;42.728;23.288;2023-02-16T02:50:57;140.83;;;57.27;;
13040;SDS011;6587;42.728;23.288;2023-02-16T02:53:44;142.17;;;60.00;;
13040;SDS011;6587;42.728;23.288;2023-02-16T02:56:36;138.80;;;59.67;;
13040;SDS011;6587;42.728;23.288;2023-02-16T02:59:22;136.33;;;58.53;;
13040;SDS011;6587;42.728;23.288;2023-02-16T03:02:10;139.47;;;60.30;;
13040;SDS011;6587;42.728;23.288;2023-02-16T03:04:38;157.90;;;66.43;;
13040;SDS011;6587;42.728;23.288;2023-02-16T03:07:07;147.27;;;64.97;;
13040;SDS011;6587;42.728;23.288;2023-02-16T03:09:35;166.27;;;74.03;;
13040;SDS011;6587;42.728;23.288;2023-02-16T03:12:02;157.93;;;65.43;;
13040;SDS011;6587;42.728;23.288;2023-02-16T03:14:51;146.17;;;64.13;;
13040;SDS011;6587;42.728;23.288;2023-02-16T03:17:21;131.30;;;54.33;;
13040;SDS011;6587;42.728;23.288;2023-02-16T03:20:11;133.07;;;57.17;;
13040;SDS011;6587;42.728;23.288;2023-02-16T03:22:57;126.77;;;55.87;;
13040;SDS011;6587;42.728;23.288;2023-02-16T03:25:44;129.67;;;54.93;;
13040;SDS011;6587;42.728;23.288;2023-02-16T03:28:30;123.37;;;52.70;;
13040;SDS011;6587;42.728;23.288;2023-02-16T03:31:17;115.47;;;49.50;;
13040;SDS011;6587;42.728;23.288;2023-02-16T03:33:47;122.73;;;49.83;;
13040;SDS011;6587;42.728;23.288;2023-02-16T03:36:18;126.27;;;54.30;;
13040;SDS011;6587;42.728;23.288;2023-02-16T03:38:46;145.00;;;60.07;;
13040;SDS011;6587;42.728;23.288;2023-02-16T03:41:13;129.90;;;58.47;;
13040;SDS011;6587;42.728;23.288;2023-02-16T03:43:40;114.40;;;50.90;;
13040;SDS011;6587;42.728;23.288;2023-02-16T03:46:07;137.77;;;62.50;;
13040;SDS011;6587;42.728;23.288;2023-02-16T03:48:35;141.70;;;64.50;;
13040;SDS011;6587;42.728;23.288;2023-02-16T03:51:02;142.17;;;60.30;;
13040;SDS011;6587;42.728;23.288;2023-02-16T03:53:29;137.23;;;56.33;;
13040;SDS011;6587;42.728;23.288;2023-02-16T03:55:58;136.17;;;58.17;;
13040;SDS011;6587;42.728;23.288;2023-02-16T03:58:24;142.53;;;61.40;;
13040;SDS011;6587;42.728;23.288;2023-02-16T04:00:52;134.00;;;57.03;;
13040;SDS011;6587;42.728;23.288;2023-02-16T04:03:19;135.87;;;60.97;;
13040;SDS011;6587;42.728;23.288;2023-02-16T04:05:47;129.63;;;57.40;;
13040;SDS011;6587;42.728;23.288;2023-02-16T04:08:14;152.77;;;62.87;;
13040;SDS011;6587;42.728;23.288;2023-02-16T04:10:41;140.90;;;62.27;;
13040;SDS011;6587;42.728;23.288;2023-02-16T04:13:09;154.40;;;67.23;;
13040;SDS011;6587;42.728;23.288;2023-02-16T04:15:34;132.13;;;54.30;;
13040;SDS011;6587;42.728;23.288;2023-02-16T04:18:02;155.13;;;67.53;;
13040;SDS011;6587;42.728;23.288;2023-02-16T04:20:30;159.43;;;67.63;;
13040;SDS011;6587;42.728;23.288;2023-02-16T04:23:00;161.40;;;69.97;;
13040;SDS011;6587;42.728;23.288;2023-02-16T04:25:27;168.13;;;74.40;;
13040;SDS011;6587;42.728;23.288;2023-02-16T04:27:55;175.77;;;71.70;;
13040;SDS011;6587;42.728;23.288;2023-02-16T04:30:24;164.93;;;70.70;;
13040;SDS011;6587;42.728;23.288;2023-02-16T04:32:53;162.40;;;71.77;;
13040;SDS011;6587;42.728;23.288;2023-02-16T04:35:21;162.77;;;68.33;;
13040;SDS011;6587;42.728;23.288;2023-02-16T04:37:48;158.40;;;65.37;;
13040;SDS011;6587;42.728;23.288;2023-02-16T04:40:16;159.70;;;63.77;;
13040;SDS011;6587;42.728;23.288;2023-02-16T04:42:44;146.83;;;62.20;;
13040;SDS011;6587;42.728;23.288;2023-02-16T04:45:11;151.47;;;61.90;;
13040;SDS011;6587;42.728;23.288;2023-02-16T04:47:39;145.17;;;62.03;;
13040;SDS011;6587;42.728;23.288;2023-02-16T04:50:07;155.33;;;62.67;;
13040;SDS011;6587;42.728;23.288;2023-02-16T04:52:35;144.87;;;60.37;;
13040;SDS011;6587;42.728;23.288;2023-02-16T04:55:02;130.43;;;59.23;;
13040;SDS011;6587;42.728;23.288;2023-02-16T04:57:31;138.67;;;60.97;;
13040;SDS011;6587;42.728;23.288;2023-02-16T04:59:58;142.10;;;60.07;;
13040;SDS011;6587;42.728;23.288;2023-02-16T05:02:25;151.43;;;65.30;;
13040;SDS011;6587;42.728;23.288;2023-02-16T05:04:52;144.83;;;63.90;;
13040;SDS011;6587;42.728;23.288;2023-02-16T05:07:19;130.63;;;57.40;;
13040;SDS011;6587;42.728;23.288;2023-02-16T05:09:46;138.40;;;59.03;;
13040;SDS011;6587;42.728;23.288;2023-02-16T05:12:13;151.20;;;64.73;;
13040;SDS011;6587;42.728;23.288;2023-02-16T05:14:59;146.57;;;65.10;;
13040;SDS011;6587;42.728;23.288;2023-02-16T05:17:26;144.67;;;62.77;;
13040;SDS011;6587;42.728;23.288;2023-02-16T05:19:54;183.93;;;78.47;;
13040;SDS011;6587;42.728;23.288;2023-02-16T05:22:23;234.00;;;102.33;;
13040;SDS011;6587;42.728;23.288;2023-02-16T05:24:52;209.97;;;91.93;;
13040;SDS011;6587;42.728;23.288;2023-02-16T05:27:20;289.87;;;137.27;;
13040;SDS011;6587;42.728;23.288;2023-02-16T05:29:48;341.27;;;163.53;;
13040;SDS011;6587;42.728;23.288;2023-02-16T05:32:17;212.60;;;99.90;;
13040;SDS011;6587;42.728;23.288;2023-02-16T05:34:45;212.27;;;96.50;;
13040;SDS011;6587;42.728;23.288;2023-02-16T05:37:12;184.57;;;82.30;;
13040;SDS011;6587;42.728;23.288;2023-02-16T05:39:40;149.53;;;62.70;;
13040;SDS011;6587;42.728;23.288;2023-02-16T05:42:07;132.40;;;56.67;;
13040;SDS011;6587;42.728;23.288;2023-02-16T05:44:35;125.53;;;55.07;;
13040;SDS011;6587;42.728;23.288;2023-02-16T05:47:02;112.37;;;49.87;;
13040;SDS011;6587;42.728;23.288;2023-02-16T05:49:31;126.67;;;59.60;;
13040;SDS011;6587;42.728;23.288;2023-02-16T05:51:58;118.07;;;51.67;;
13040;SDS011;6587;42.728;23.288;2023-02-16T05:54:25;117.93;;;53.80;;
13040;SDS011;6587;42.728;23.288;2023-02-16T05:56:52;127.03;;;57.47;;
13040;SDS011;6587;42.728;23.288;2023-02-16T05:59:19;127.43;;;55.07;;
13040;SDS011;6587;42.728;23.288;2023-02-16T06:01:46;139.13;;;63.43;;
13040;SDS011;6587;42.728;23.288;2023-02-16T06:04:13;150.40;;;62.43;;
13040;SDS011;6587;42.728;23.288;2023-02-16T06:06:41;154.13;;;64.57;;
13040;SDS011;6587;42.728;23.288;2023-02-16T06:09:09;123.63;;;52.93;;
13040;SDS011;6587;42.728;23.288;2023-02-16T06:11:36;115.57;;;50.07;;
13040;SDS011;6587;42.728;23.288;2023-02-16T06:14:03;128.30;;;53.17;;
13040;SDS011;6587;42.728;23.288;2023-02-16T06:16:33;119.73;;;52.37;;
13040;SDS011;6587;42.728;23.288;2023-02-16T06:19:00;125.47;;;53.07;;
13040;SDS011;6587;42.728;23.288;2023-02-16T06:21:27;100.83;;;46.83;;
13040;SDS011;6587;42.728;23.288;2023-02-16T06:23:56;136.40;;;61.40;;
13040;SDS011;6587;42.728;23.288;2023-02-16T06:26:23;160.50;;;68.07;;
13040;SDS011;6587;42.728;23.288;2023-02-16T06:28:51;190.43;;;79.37;;
13040;SDS011;6587;42.728;23.288;2023-02-16T06:31:18;174.90;;;72.50;;
13040;SDS011;6587;42.728;23.288;2023-02-16T06:33:45;130.23;;;54.00;;
13040;SDS011;6587;42.728;23.288;2023-02-16T06:36:13;115.20;;;51.53;;
13040;SDS011;6587;42.728;23.288;2023-02-16T06:38:40;117.47;;;51.33;;
13040;SDS011;6587;42.728;23.288;2023-02-16T06:41:08;109.43;;;49.17;;
13040;SDS011;6587;42.728;23.288;2023-02-16T06:43:35;99.30;;;45.30;;
13040;SDS011;6587;42.728;23.288;2023-02-16T06:46:02;107.33;;;42.10;;
13040;SDS011;6587;42.728;23.288;2023-02-16T06:48:30;87.30;;;36.73;;
13040;SDS011;6587;42.728;23.288;2023-02-16T06:50:56;93.07;;;41.03;;
13040;SDS011;6587;42.728;23.288;2023-02-16T06:53:23;95.23;;;44.63;;
13040;SDS011;6587;42.728;23.288;2023-02-16T06:55:50;100.47;;;43.93;;
13040;SDS011;6587;42.728;23.288;2023-02-16T06:58:19;91.07;;;40.93;;
13040;SDS011;6587;42.728;23.288;2023-02-16T07:00:45;91.70;;;42.23;;
13040;SDS011;6587;42.728;23.288;2023-02-16T07:03:12;78.63;;;36.07;;
13040;SDS011;6587;42.728;23.288;2023-02-16T07:05:39;73.80;;;34.37;;
13040;SDS011;6587;42.728;23.288;2023-02-16T07:08:08;71.17;;;34.17;;
13040;SDS011;6587;42.728;23.288;2023-02-16T07:10:35;74.90;;;34.20;;
13040;SDS011;6587;42.728;23.288;2023-02-16T07:13:02;69.47;;;34.33;;
13040;SDS011;6587;42.728;23.288;2023-02-16T07:15:30;74.97;;;34.97;;
13040;SDS011;6587;42.728;23.288;2023-02-16T07:17:57;73.90;;;33.80;;
13040;SDS011;6587;42.728;23.288;2023-02-16T07:20:24;76.93;;;35.80;;
13040;SDS011;6587;42.728;23.288;2023-02-16T07:22:52;78.97;;;36.07;;
13040;SDS011;6587;42.728;23.288;2023-02-16T07:25:19;89.77;;;38.57;;
13040;SDS011;6587;42.728;23.288;2023-02-16T07:27:46;85.90;;;37.77;;
13040;SDS011;6587;42.728;23.288;2023-02-16T07:30:13;84.53;;;38.70;;
13040;SDS011;6587;42.728;23.288;2023-02-16T07:32:42;81.43;;;38.87;;
13040;SDS011;6587;42.728;23.288;2023-02-16T07:35:09;82.13;;;39.80;;
13040;SDS011;6587;42.728;23.288;2023-02-16T07:37:36;84.10;;;40.00;;
13040;SDS011;6587;42.728;23.288;2023-02-16T07:40:04;92.77;;;42.50;;
13040;SDS011;6587;42.728;23.288;2023-02-16T07:42:32;91.87;;;40.27;;
13040;SDS011;6587;42.728;23.288;2023-02-16T07:45:01;90.63;;;40.90;;
13040;SDS011;6587;42.728;23.288;2023-02-16T07:47:28;87.03;;;41.40;;
13040;SDS011;6587;42.728;23.288;2023-02-16T07:49:56;93.10;;;40.80;;
13040;SDS011;6587;42.728;23.288;2023-02-16T07:52:24;84.83;;;38.87;;
13040;SDS011;6587;42.728;23.288;2023-02-16T07:54:55;83.53;;;39.30;;
13040;SDS011;6587;42.728;23.288;2023-02-16T07:57:22;74.80;;;35.27;;
13040;SDS011;6587;42.728;23.288;2023-02-16T07:59:49;81.27;;;36.87;;
13040;SDS011;6587;42.728;23.288;2023-02-16T08:02:16;82.47;;;36.93;;
13040;SDS011;6587;42.728;23.288;2023-02-16T08:04:44;78.63;;;35.50;;
13040;SDS011;6587;42.728;23.288;2023-02-16T08:07:12;77.33;;;35.03;;
13040;SDS011;6587;42.728;23.288;2023-02-16T08:09:41;80.67;;;36.27;;
13040;SDS011;6587;42.728;23.288;2023-02-16T08:12:08;85.60;;;37.07;;
13040;SDS011;6587;42.728;23.288;2023-02-16T08:14:36;80.27;;;37.40;;
13040;SDS011;6587;42.728;23.288;2023-02-16T08:17:03;82.00;;;36.63;;
13040;SDS011;6587;42.728;23.288;2023-02-16T08:19:31;82.77;;;38.67;;
13040;SDS011;6587;42.728;23.288;2023-02-16T08:21:59;80.87;;;39.97;;
13040;SDS011;6587;42.728;23.288;2023-02-16T08:24:30;88.53;;;41.60;;
13040;SDS011;6587;42.728;23.288;2023-02-16T08:26:58;98.90;;;44.17;;
13040;SDS011;6587;42.728;23.288;2023-02-16T08:29:25;87.67;;;43.97;;
13040;SDS011;6587;42.728;23.288;2023-02-16T08:31:52;88.90;;;42.20;;
13040;SDS011;6587;42.728;23.288;2023-02-16T08:34:21;85.60;;;42.77;;
13040;SDS011;6587;42.728;23.288;2023-02-16T08:36:51;90.10;;;41.37;;
13040;SDS011;6587;42.728;23.288;2023-02-16T08:39:21;83.10;;;39.03;;
13040;SDS011;6587;42.728;23.288;2023-02-16T08:41:51;86.90;;;39.47;;
13040;SDS011;6587;42.728;23.288;2023-02-16T08:44:19;87.00;;;40.37;;
13040;SDS011;6587;42.728;23.288;2023-02-16T08:46:48;99.00;;;41.67;;
13040;SDS011;6587;42.728;23.288;2023-02-16T08:49:17;81.23;;;37.07;;
13040;SDS011;6587;42.728;23.288;2023-02-16T08:51:46;83.27;;;39.33;;
13040;SDS011;6587;42.728;23.288;2023-02-16T08:54:15;83.37;;;40.17;;
13040;SDS011;6587;42.728;23.288;2023-02-16T08:56:44;85.73;;;39.47;;
13040;SDS011;6587;42.728;23.288;2023-02-16T08:59:16;94.43;;;42.83;;
13040;SDS011;6587;42.728;23.288;2023-02-16T09:01:44;92.87;;;42.33;;
13040;SDS011;6587;42.728;23.288;2023-02-16T09:04:11;88.80;;;42.73;;
13040;SDS011;6587;42.728;23.288;2023-02-16T09:06:39;96.57;;;42.03;;
13040;SDS011;6587;42.728;23.288;2023-02-16T09:09:08;78.13;;;36.87;;
13040;SDS011;6587;42.728;23.288;2023-02-16T09:11:36;79.37;;;40.80;;
13040;SDS011;6587;42.728;23.288;2023-02-16T09:14:03;98.50;;;40.77;;
13040;SDS011;6587;42.728;23.288;2023-02-16T09:16:32;95.27;;;41.43;;
13040;SDS011;6587;42.728;23.288;2023-02-16T09:19:00;80.97;;;40.17;;
13040;SDS011;6587;42.728;23.288;2023-02-16T09:21:28;77.40;;;41.37;;
13040;SDS011;6587;42.728;23.288;2023-02-16T09:23:58;93.77;;;46.20;;
13040;SDS011;6587;42.728;23.288;2023-02-16T09:26:26;93.20;;;45.73;;
13040;SDS011;6587;42.728;23.288;2023-02-16T09:28:56;100.13;;;48.83;;
13040;SDS011;6587;42.728;23.288;2023-02-16T09:31:24;104.33;;;50.43;;
13040;SDS011;6587;42.728;23.288;2023-02-16T09:33:55;113.43;;;54.67;;
13040;SDS011;6587;42.728;23.288;2023-02-16T09:36:23;112.43;;;52.57;;
13040;SDS011;6587;42.728;23.288;2023-02-16T09:38:51;92.47;;;46.27;;
13040;SDS011;6587;42.728;23.288;2023-02-16T09:41:22;93.90;;;46.90;;
13040;SDS011;6587;42.728;23.288;2023-02-16T09:43:58;93.00;;;46.43;;
13040;SDS011;6587;42.728;23.288;2023-02-16T09:46:29;98.83;;;47.73;;
13040;SDS011;6587;42.728;23.288;2023-02-16T09:48:59;90.50;;;46.83;;
13040;SDS011;6587;42.728;23.288;2023-02-16T09:51:28;82.00;;;44.90;;
13040;SDS011;6587;42.728;23.288;2023-02-16T09:54:03;89.10;;;46.20;;
13040;SDS011;6587;42.728;23.288;2023-02-16T09:56:40;94.10;;;49.70;;
13040;SDS011;6587;42.728;23.288;2023-02-16T09:59:26;90.10;;;47.70;;
13040;SDS011;6587;42.728;23.288;2023-02-16T10:02:12;86.90;;;46.87;;
13040;SDS011;6587;42.728;23.288;2023-02-16T10:08:00;103.20;;;48.93;;
13040;SDS011;6587;42.728;23.288;2023-02-16T10:10:33;86.73;;;46.37;;
13040;SDS011;6587;42.728;23.288;2023-02-16T10:13:07;82.50;;;46.13;;
13040;SDS011;6587;42.728;23.288;2023-02-16T10:15:42;88.73;;;46.50;;
13040;SDS011;6587;42.728;23.288;2023-02-16T10:18:15;78.37;;;44.90;;
13040;SDS011;6587;42.728;23.288;2023-02-16T10:20:50;78.13;;;44.63;;
13040;SDS011;6587;42.728;23.288;2023-02-16T10:23:28;82.07;;;44.03;;
13040;SDS011;6587;42.728;23.288;2023-02-16T10:26:01;74.00;;;42.87;;
13040;SDS011;6587;42.728;23.288;2023-02-16T10:28:41;78.10;;;43.63;;
13040;SDS011;6587;42.728;23.288;2023-02-16T10:31:13;80.33;;;41.57;;
13040;SDS011;6587;42.728;23.288;2023-02-16T10:33:49;84.43;;;38.63;;
13040;SDS011;6587;42.728;23.288;2023-02-16T10:36:28;67.37;;;37.50;;
13040;SDS011;6587;42.728;23.288;2023-02-16T10:39:08;69.77;;;39.67;;
13040;SDS011;6587;42.728;23.288;2023-02-16T10:41:45;73.83;;;40.33;;
13040;SDS011;6587;42.728;23.288;2023-02-16T10:44:18;71.77;;;39.73;;
13040;SDS011;6587;42.728;23.288;2023-02-16T10:46:50;78.23;;;42.40;;
13040;SDS011;6587;42.728;23.288;2023-02-16T10:49:22;68.93;;;41.57;;
13040;SDS011;6587;42.728;23.288;2023-02-16T10:51:52;73.77;;;44.10;;
13040;SDS011;6587;42.728;23.288;2023-02-16T10:54:23;72.03;;;41.53;;
13040;SDS011;6587;42.728;23.288;2023-02-16T10:56:52;69.90;;;40.53;;
13040;SDS011;6587;42.728;23.288;2023-02-16T10:59:25;71.97;;;41.33;;
13040;SDS011;6587;42.728;23.288;2023-02-16T11:01:57;68.17;;;39.23;;
13040;SDS011;6587;42.728;23.288;2023-02-16T11:04:36;66.90;;;38.97;;
13040;SDS011;6587;42.728;23.288;2023-02-16T11:07:07;69.60;;;40.60;;
13040;SDS011;6587;42.728;23.288;2023-02-16T11:09:37;60.67;;;39.00;;
13040;SDS011;6587;42.728;23.288;2023-02-16T11:12:13;63.33;;;39.67;;
13040;SDS011;6587;42.728;23.288;2023-02-16T11:14:46;67.53;;;39.03;;
13040;SDS011;6587;42.728;23.288;2023-02-16T11:17:15;66.57;;;39.97;;
13040;SDS011;6587;42.728;23.288;2023-02-16T11:19:49;64.27;;;38.63;;
13040;SDS011;6587;42.728;23.288;2023-02-16T11:22:24;67.83;;;40.37;;
13040;SDS011;6587;42.728;23.288;2023-02-16T11:24:53;62.87;;;39.27;;
13040;SDS011;6587;42.728;23.288;2023-02-16T11:27:21;63.07;;;37.37;;
13040;SDS011;6587;42.728;23.288;2023-02-16T11:29:50;57.53;;;37.67;;
13040;SDS011;6587;42.728;23.288;2023-02-16T11:32:38;62.30;;;35.57;;
13040;SDS011;6587;42.728;23.288;2023-02-16T11:35:05;66.07;;;37.67;;
13040;SDS011;6587;42.728;23.288;2023-02-16T11:37:37;59.07;;;34.50;;
13040;SDS011;6587;42.728;23.288;2023-02-16T11:40:13;62.40;;;36.43;;
13040;SDS011;6587;42.728;23.288;2023-02-16T11:42:46;55.60;;;34.90;;
13040;SDS011;6587;42.728;23.288;2023-02-16T11:45:23;59.90;;;36.17;;
13040;SDS011;6587;42.728;23.288;2023-02-16T11:47:52;61.43;;;35.00;;
13040;SDS011;6587;42.728;23.288;2023-02-16T11:50:23;52.63;;;34.07;;
13040;SDS011;6587;42.728;23.288;2023-02-16T11:52:54;53.93;;;31.93;;
13040;SDS011;6587;42.728;23.288;2023-02-16T11:55:25;48.10;;;31.37;;
13040;SDS011;6587;42.728;23.288;2023-02-16T11:58:11;47.30;;;30.97;;
13040;SDS011;6587;42.728;23.288;2023-02-16T12:00:40;53.97;;;33.10;;
13040;SDS011;6587;42.728;23.288;2023-02-16T12:03:23;53.00;;;34.43;;
13040;SDS011;6587;42.728;23.288;2023-02-16T12:08:53;152.30;;;94.00;;
13040;SDS011;6587;42.728;23.288;2023-02-16T12:11:31;58.40;;;34.93;;
13040;SDS011;6587;42.728;23.288;2023-02-16T12:14:10;57.37;;;34.73;;
13040;SDS011;6587;42.728;23.288;2023-02-16T12:16:49;58.17;;;34.53;;
13040;SDS011;6587;42.728;23.288;2023-02-16T12:19:30;53.03;;;32.30;;
13040;SDS011;6587;42.728;23.288;2023-02-16T12:22:05;56.43;;;34.30;;
13040;SDS011;6587;42.728;23.288;2023-02-16T12:24:45;53.80;;;33.37;;
13040;SDS011;6587;42.728;23.288;2023-02-16T12:27:19;55.03;;;34.63;;
13040;SDS011;6587;42.728;23.288;2023-02-16T12:29:57;71.90;;;37.10;;
13040;SDS011;6587;42.728;23.288;2023-02-16T12:32:32;56.80;;;33.07;;
13040;SDS011;6587;42.728;23.288;2023-02-16T12:35:11;55.30;;;34.53;;
13040;SDS011;6587;42.728;23.288;2023-02-16T12:37:56;51.83;;;32.67;;
13040;SDS011;6587;42.728;23.288;2023-02-16T12:40:36;49.93;;;32.30;;
13040;SDS011;6587;42.728;23.288;2023-02-16T12:43:30;56.00;;;33.23;;
13040;SDS011;6587;42.728;23.288;2023-02-16T12:46:03;54.77;;;33.00;;
13040;SDS011;6587;42.728;23.288;2023-02-16T12:48:38;55.90;;;33.13;;
13040;SDS011;6587;42.728;23.288;2023-02-16T12:51:13;52.20;;;32.60;;
13040;SDS011;6587;42.728;23.288;2023-02-16T12:53:45;49.83;;;31.87;;
13040;SDS011;6587;42.728;23.288;2023-02-16T12:56:19;49.43;;;31.63;;
13040;SDS011;6587;42.728;23.288;2023-02-16T12:58:54;53.27;;;31.80;;
13040;SDS011;6587;42.728;23.288;2023-02-16T13:01:29;53.40;;;30.90;;
13040;SDS011;6587;42.728;23.288;2023-02-16T13:04:03;52.43;;;30.90;;
13040;SDS011;6587;42.728;23.288;2023-02-16T13:06:41;61.90;;;31.97;;
13040;SDS011;6587;42.728;23.288;2023-02-16T13:09:16;48.83;;;30.00;;
13040;SDS011;6587;42.728;23.288;2023-02-16T13:11:54;47.07;;;30.50;;
13040;SDS011;6587;42.728;23.288;2023-02-16T13:14:26;51.53;;;31.33;;
13040;SDS011;6587;42.728;23.288;2023-02-16T13:16:56;48.83;;;31.77;;
13040;SDS011;6587;42.728;23.288;2023-02-16T13:19:27;49.07;;;30.90;;
13040;SDS011;6587;42.728;23.288;2023-02-16T13:25:07;41.13;;;27.57;;
13040;SDS011;6587;42.728;23.288;2023-02-16T13:27:54;49.30;;;29.92;;
13040;SDS011;6587;42.728;23.288;2023-02-16T13:30:38;37.83;;;26.50;;
13040;SDS011;6587;42.728;23.288;2023-02-16T13:33:23;43.30;;;28.70;;
13040;SDS011;6587;42.728;23.288;2023-02-16T13:39:29;41.47;;;25.90;;
13040;SDS011;6587;42.728;23.288;2023-02-16T13:42:13;41.57;;;26.23;;
13040;SDS011;6587;42.728;23.288;2023-02-16T13:45:11;39.90;;;26.10;;
13040;SDS011;6587;42.728;23.288;2023-02-16T13:47:40;44.47;;;26.77;;
13040;SDS011;6587;42.728;23.288;2023-02-16T13:50:13;47.97;;;26.50;;
13040;SDS011;6587;42.728;23.288;2023-02-16T13:52:51;39.20;;;24.43;;
13040;SDS011;6587;42.728;23.288;2023-02-16T13:55:22;37.63;;;21.67;;
13040;SDS011;6587;42.728;23.288;2023-02-16T13:57:59;36.83;;;21.90;;
13040;SDS011;6587;42.728;23.288;2023-02-16T14:00:31;33.47;;;22.25;;
13040;SDS011;6587;42.728;23.288;2023-02-16T14:03:01;32.60;;;20.40;;
13040;SDS011;6587;42.728;23.288;2023-02-16T14:05:35;33.60;;;21.33;;
13040;SDS011;6587;42.728;23.288;2023-02-16T14:08:08;32.47;;;19.90;;
13040;SDS011;6587;42.728;23.288;2023-02-16T14:10:56;33.22;;;18.77;;
13040;SDS011;6587;42.728;23.288;2023-02-16T14:13:29;30.17;;;19.55;;
13040;SDS011;6587;42.728;23.288;2023-02-16T14:16:00;27.38;;;17.75;;
13040;SDS011;6587;42.728;23.288;2023-02-16T14:18:35;28.97;;;17.03;;
13040;SDS011;6587;42.728;23.288;2023-02-16T14:21:15;26.13;;;16.67;;
13040;SDS011;6587;42.728;23.288;2023-02-16T14:23:45;29.30;;;17.07;;
13040;SDS011;6587;42.728;23.288;2023-02-16T14:26:20;27.07;;;15.97;;
13040;SDS011;6587;42.728;23.288;2023-02-16T14:28:55;28.00;;;15.47;;
13040;SDS011;6587;42.728;23.288;2023-02-16T14:31:37;28.63;;;16.17;;
13040;SDS011;6587;42.728;23.288;2023-02-16T14:34:11;32.87;;;16.40;;
13040;SDS011;6587;42.728;23.288;2023-02-16T14:39:47;27.03;;;15.53;;
13040;SDS011;6587;42.728;23.288;2023-02-16T14:42:15;22.10;;;14.83;;
13040;SDS011;6587;42.728;23.288;2023-02-16T14:44:50;22.23;;;14.03;;
13040;SDS011;6587;42.728;23.288;2023-02-16T14:47:30;23.30;;;14.63;;
13040;SDS011;6587;42.728;23.288;2023-02-16T14:50:10;25.90;;;15.00;;
13040;SDS011;6587;42.728;23.288;2023-02-16T14:58:57;20.53;;;13.10;;
13040;SDS011;6587;42.728;23.288;2023-02-16T15:01:27;22.97;;;13.93;;
13040;SDS011;6587;42.728;23.288;2023-02-16T15:04:04;20.97;;;13.60;;
13040;SDS011;6587;42.728;23.288;2023-02-16T15:06:32;27.17;;;13.70;;
13040;SDS011;6587;42.728;23.288;2023-02-16T15:09:04;25.33;;;14.57;;